createdAt,value
2017-01-12T00:00:18.672Z,24.78
2017-01-12T00:01:17.926Z,24.91
2017-01-12T00:02:18.251Z,24.88
2017-01-12T00:03:17.999Z,24.93
2017-01-12T00:04:18.448Z,24.85
2017-01-12T00:05:18.459Z,24.85
2017-01-12T00:06:18.017Z,24.93
2017-01-12T00:07:17.974Z,24.83
2017-01-12T00:08:18.011Z,24.87
2017-01-12T00:09:18.146Z,24.78
2017-01-12T00:10:18.144Z,24.84
2017-01-12T00:11:18.551Z,24.85
2017-01-12T00:12:18.505Z,24.85
2017-01-12T00:13:18.619Z,24.81
2017-01-12T00:14:17.732Z,24.85
2017-01-12T00:15:17.786Z,24.95
2017-01-12T00:16:17.843Z,24.84
2017-01-12T00:17:18.594Z,24.9
2017-01-12T00:18:18.286Z,24.81
2017-01-12T00:19:18.561Z,24.91
2017-01-12T00:20:18.217Z,24.71
2017-01-12T00:21:18.177Z,24.83
2017-01-12T00:22:18.181Z,24.81
2017-01-12T00:23:18.188Z,24.81
2017-01-12T00:24:18.245Z,24.81
2017-01-12T00:25:17.804Z,24.83
2017-01-12T00:26:18.208Z,24.78
2017-01-12T00:27:18.936Z,24.78
2017-01-12T00:28:18.174Z,24.84
2017-01-12T00:29:18.282Z,24.71
2017-01-12T00:30:18.249Z,24.78
2017-01-12T00:31:18.639Z,24.71
2017-01-12T00:32:18.701Z,24.76
2017-01-12T00:33:18.309Z,24.6
2017-01-12T00:34:18.215Z,24.55
2017-01-12T00:35:18.321Z,24.49
2017-01-12T00:36:18.677Z,24.52
2017-01-12T00:37:18.337Z,24.5
2017-01-12T00:38:18.692Z,24.47
2017-01-12T00:39:18.353Z,24.47
2017-01-12T00:40:17.874Z,24.47
2017-01-12T00:41:18.622Z,24.49
2017-01-12T00:42:18.774Z,24.4
2017-01-12T00:43:18.332Z,24.47
2017-01-12T00:44:17.997Z,24.46
2017-01-12T00:45:18.637Z,24.45
2017-01-12T00:46:18.744Z,24.46
2017-01-12T00:47:18.308Z,24.4
2017-01-12T00:48:18.809Z,24.49
2017-01-12T00:49:18.371Z,24.43
2017-01-12T00:50:18.378Z,24.39
2017-01-12T00:51:18.434Z,24.34
2017-01-12T00:52:18.342Z,24.37
2017-01-12T00:53:18.793Z,24.37
2017-01-12T00:54:18.060Z,24.42
2017-01-12T00:55:19.107Z,24.42
2017-01-12T00:56:18.417Z,24.37
2017-01-12T00:57:18.920Z,24.32
2017-01-12T00:58:32.818Z,24.3
2017-01-12T00:59:18.392Z,24.28
2017-01-12T01:00:18.995Z,24.31
2017-01-12T01:01:18.501Z,24.28
2017-01-12T01:02:18.906Z,24.28
2017-01-12T01:03:18.418Z,24.35
2017-01-12T01:04:18.477Z,24.34
2017-01-12T01:05:18.927Z,24.43
2017-01-12T01:06:19.184Z,24.42
2017-01-12T01:07:18.544Z,24.42
2017-01-12T01:08:18.897Z,24.4
2017-01-12T01:09:18.164Z,24.34
2017-01-12T01:10:18.430Z,24.32
2017-01-12T01:11:18.575Z,24.28
2017-01-12T01:12:18.531Z,24.28
2017-01-12T01:13:18.635Z,24.32
2017-01-12T01:14:18.594Z,24.37
2017-01-12T01:15:18.953Z,24.32
2017-01-12T01:16:18.519Z,24.28
2017-01-12T01:17:18.612Z,24.3
2017-01-12T01:18:18.624Z,24.28
2017-01-12T01:19:18.581Z,24.3
2017-01-12T01:20:19.032Z,24.31
2017-01-12T01:21:18.592Z,24.35
2017-01-12T01:22:18.600Z,24.47
2017-01-12T01:23:18.607Z,24.39
2017-01-12T01:24:19.068Z,24.45
2017-01-12T01:25:18.566Z,24.49
2017-01-12T01:26:18.187Z,24.53
2017-01-12T01:27:18.683Z,24.53
2017-01-12T01:28:18.240Z,24.57
2017-01-12T01:29:19.092Z,24.57
2017-01-12T01:30:18.804Z,24.49
2017-01-12T01:31:18.611Z,24.46
2017-01-12T01:32:19.066Z,24.31
2017-01-12T01:33:18.331Z,24.37
2017-01-12T01:34:18.685Z,24.37
2017-01-12T01:35:18.639Z,24.47
2017-01-12T01:36:18.944Z,24.47
2017-01-12T01:37:18.756Z,24.49
2017-01-12T01:38:18.710Z,24.6
2017-01-12T01:39:18.721Z,24.53
2017-01-12T01:40:18.675Z,24.53
2017-01-12T01:41:21.029Z,24.52
2017-01-12T01:42:19.486Z,24.57
2017-01-12T01:43:18.298Z,24.53
2017-01-12T01:44:18.361Z,24.6
2017-01-12T01:45:19.153Z,24.61
2017-01-12T01:46:18.778Z,24.62
2017-01-12T01:47:18.841Z,24.65
2017-01-12T01:48:18.781Z,24.67
2017-01-12T01:49:19.235Z,24.55
2017-01-12T01:50:19.046Z,24.47
2017-01-12T01:51:18.905Z,24.45
2017-01-12T01:52:19.255Z,24.47
2017-01-12T01:53:18.394Z,24.49
2017-01-12T01:54:18.822Z,24.53
2017-01-12T01:55:18.880Z,24.58
2017-01-12T01:56:18.885Z,24.55
2017-01-12T01:57:18.903Z,24.61
2017-01-12T01:58:19.004Z,24.57
2017-01-12T01:59:18.914Z,24.53
2017-01-12T02:00:18.815Z,24.5
2017-01-12T02:01:18.527Z,24.57
2017-01-12T02:02:18.931Z,24.55
2017-01-12T02:03:19.285Z,24.58
2017-01-12T02:04:19.046Z,24.53
2017-01-12T02:05:19.300Z,24.58
2017-01-12T02:06:18.959Z,24.57
2017-01-12T02:07:18.865Z,24.55
2017-01-12T02:08:19.025Z,24.53
2017-01-12T02:09:19.279Z,24.57
2017-01-12T02:10:18.938Z,24.58
2017-01-12T02:11:19.342Z,24.67
2017-01-12T02:12:18.854Z,24.71
2017-01-12T02:13:18.907Z,24.6
2017-01-12T02:14:19.367Z,24.58
2017-01-12T02:15:18.973Z,24.6
2017-01-12T02:16:19.276Z,24.5
2017-01-12T02:17:18.988Z,24.57
2017-01-12T02:18:19.298Z,24.61
2017-01-12T02:19:18.903Z,24.61
2017-01-12T02:20:18.515Z,24.61
2017-01-12T02:21:19.020Z,24.53
2017-01-12T02:22:18.923Z,24.55
2017-01-12T02:23:19.379Z,24.53
2017-01-12T02:24:19.039Z,24.62
2017-01-12T02:25:18.999Z,24.57
2017-01-12T02:26:19.101Z,24.49
2017-01-12T02:27:18.615Z,24.52
2017-01-12T02:28:18.967Z,24.49
2017-01-12T02:29:19.083Z,24.5
2017-01-12T02:30:19.081Z,24.57
2017-01-12T02:31:19.089Z,24.67
2017-01-12T02:32:19.048Z,24.58
2017-01-12T02:33:19.549Z,24.58
2017-01-12T02:34:19.405Z,24.58
2017-01-12T02:35:19.142Z,24.53
2017-01-12T02:36:19.081Z,24.57
2017-01-12T02:37:19.428Z,24.49
2017-01-12T02:38:19.041Z,24.49
2017-01-12T02:39:19.497Z,24.58
2017-01-12T02:40:18.757Z,24.62
2017-01-12T02:41:19.111Z,24.49
2017-01-12T02:42:19.512Z,24.52
2017-01-12T02:43:19.076Z,24.57
2017-01-12T02:44:19.478Z,24.53
2017-01-12T02:45:19.087Z,24.61
2017-01-12T02:46:19.541Z,24.57
2017-01-12T02:47:19.550Z,24.62
2017-01-12T02:48:19.112Z,24.55
2017-01-12T02:49:19.517Z,24.53
2017-01-12T02:50:19.177Z,24.47
2017-01-12T02:51:18.738Z,24.47
2017-01-12T02:52:18.799Z,24.43
2017-01-12T02:53:19.198Z,24.53
2017-01-12T02:54:19.259Z,24.47
2017-01-12T02:55:19.263Z,24.52
2017-01-12T02:56:19.567Z,24.47
2017-01-12T02:57:18.783Z,24.52
2017-01-12T02:58:19.582Z,24.49
2017-01-12T02:59:19.636Z,24.49
2017-01-12T03:00:19.250Z,24.57
2017-01-12T03:01:19.555Z,24.45
2017-01-12T03:02:19.264Z,24.43
2017-01-12T03:03:19.220Z,24.4
2017-01-12T03:04:18.884Z,24.47
2017-01-12T03:05:19.635Z,24.52
2017-01-12T03:06:19.242Z,24.49
2017-01-12T03:07:19.693Z,24.45
2017-01-12T03:08:18.859Z,24.47
2017-01-12T03:09:18.923Z,24.5
2017-01-12T03:10:19.663Z,24.35
2017-01-12T03:11:18.929Z,24.4
2017-01-12T03:12:19.334Z,24.42
2017-01-12T03:13:19.344Z,24.32
2017-01-12T03:14:19.351Z,24.31
2017-01-12T03:15:18.911Z,24.34
2017-01-12T03:16:19.017Z,24.39
2017-01-12T03:17:19.420Z,24.42
2017-01-12T03:18:19.381Z,24.37
2017-01-12T03:19:19.334Z,24.46
2017-01-12T03:20:19.742Z,24.5
2017-01-12T03:21:19.800Z,24.45
2017-01-12T03:22:19.012Z,24.45
2017-01-12T03:23:19.809Z,24.35
2017-01-12T03:24:19.422Z,24.39
2017-01-12T03:25:19.822Z,24.45
2017-01-12T03:26:19.385Z,24.49
2017-01-12T03:27:19.447Z,24.53
2017-01-12T03:28:34.277Z,24.52
2017-01-12T03:29:19.011Z,24.49
2017-01-12T03:30:19.515Z,24.5
2017-01-12T03:31:19.815Z,24.46
2017-01-12T03:32:19.931Z,24.49
2017-01-12T03:33:19.831Z,24.43
2017-01-12T03:34:19.508Z,24.53
2017-01-12T03:35:19.105Z,24.47
2017-01-12T03:36:19.951Z,24.46
2017-01-12T03:37:19.464Z,24.47
2017-01-12T03:38:19.524Z,24.5
2017-01-12T03:39:19.480Z,24.52
2017-01-12T03:40:19.087Z,24.35
2017-01-12T03:41:19.491Z,24.31
2017-01-12T03:42:19.103Z,24.37
2017-01-12T03:43:19.605Z,24.35
2017-01-12T03:44:19.560Z,24.4
2017-01-12T03:45:19.173Z,24.45
2017-01-12T03:46:19.536Z,24.47
2017-01-12T03:47:19.585Z,24.45
2017-01-12T03:48:19.197Z,24.5
2017-01-12T03:49:19.201Z,24.47
2017-01-12T03:50:20.007Z,24.4
2017-01-12T03:51:19.666Z,24.39
2017-01-12T03:52:19.177Z,24.39
2017-01-12T03:53:19.631Z,24.47
2017-01-12T03:54:19.685Z,24.45
2017-01-12T03:55:20.038Z,24.47
2017-01-12T03:56:19.645Z,24.39
2017-01-12T03:57:19.606Z,24.39
2017-01-12T03:58:19.661Z,24.46
2017-01-12T03:59:20.064Z,24.39
2017-01-12T04:00:19.685Z,24.34
2017-01-12T04:01:20.080Z,24.42
2017-01-12T04:02:20.036Z,24.35
2017-01-12T04:03:19.748Z,24.39
2017-01-12T04:04:19.657Z,24.31
2017-01-12T04:05:19.661Z,24.4
2017-01-12T04:06:19.669Z,24.4
2017-01-12T04:07:19.432Z,24.31
2017-01-12T04:08:20.133Z,24.3
2017-01-12T04:09:19.345Z,24.39
2017-01-12T04:10:19.751Z,24.34
2017-01-12T04:11:19.707Z,24.35
2017-01-12T04:12:19.768Z,24.45
2017-01-12T04:13:20.165Z,24.34
2017-01-12T04:14:19.777Z,24.37
2017-01-12T04:15:20.232Z,24.4
2017-01-12T04:16:19.398Z,24.39
2017-01-12T04:17:19.852Z,24.43
2017-01-12T04:18:19.757Z,24.37
2017-01-12T04:19:20.019Z,24.35
2017-01-12T04:20:19.774Z,24.4
2017-01-12T04:21:20.275Z,24.35
2017-01-12T04:22:19.885Z,24.37
2017-01-12T04:23:19.839Z,24.45
2017-01-12T04:24:19.848Z,24.4
2017-01-12T04:25:19.857Z,24.4
2017-01-12T04:26:20.262Z,24.39
2017-01-12T04:27:20.220Z,24.28
2017-01-12T04:28:36.565Z,24.32
2017-01-12T04:29:19.884Z,24.37
2017-01-12T04:30:19.447Z,24.37
2017-01-12T04:31:19.947Z,24.3
2017-01-12T04:32:19.456Z,24.32
2017-01-12T04:33:19.967Z,24.43
2017-01-12T04:34:20.314Z,24.32
2017-01-12T04:35:19.981Z,24.3
2017-01-12T04:36:19.936Z,24.37
2017-01-12T04:37:20.317Z,24.32
2017-01-12T04:38:20.294Z,24.35
2017-01-12T04:39:20.056Z,24.43
2017-01-12T04:40:19.960Z,24.3
2017-01-12T04:41:19.920Z,24.37
2017-01-12T04:42:19.974Z,24.4
2017-01-12T04:43:20.329Z,24.42
2017-01-12T04:44:20.389Z,24.45
2017-01-12T04:45:20.346Z,24.5
2017-01-12T04:46:19.955Z,24.46
2017-01-12T04:47:20.457Z,24.47
2017-01-12T04:48:19.622Z,24.47
2017-01-12T04:49:19.977Z,24.37
2017-01-12T04:50:20.380Z,24.3
2017-01-12T04:51:19.989Z,24.35
2017-01-12T04:52:20.442Z,24.39
2017-01-12T04:53:19.707Z,24.42
2017-01-12T04:54:19.662Z,24.46
2017-01-12T04:55:20.070Z,24.46
2017-01-12T04:56:20.124Z,24.35
2017-01-12T04:57:20.430Z,24.39
2017-01-12T04:58:20.143Z,24.43
2017-01-12T04:59:20.598Z,24.32
2017-01-12T05:00:20.103Z,24.42
2017-01-12T05:01:20.059Z,24.37
2017-01-12T05:02:20.566Z,24.3
2017-01-12T05:03:20.568Z,24.35
2017-01-12T05:04:20.081Z,24.47
2017-01-12T05:05:20.587Z,24.46
2017-01-12T05:06:19.803Z,24.45
2017-01-12T05:07:19.706Z,24.46
2017-01-12T05:08:19.812Z,24.35
2017-01-12T05:09:20.224Z,24.43
2017-01-12T05:10:19.729Z,24.52
2017-01-12T05:11:20.281Z,24.49
2017-01-12T05:12:20.137Z,24.47
2017-01-12T05:13:20.195Z,24.42
2017-01-12T05:14:20.151Z,24.45
2017-01-12T05:15:20.600Z,24.46
2017-01-12T05:16:20.166Z,24.37
2017-01-12T05:17:20.224Z,24.35
2017-01-12T05:18:20.677Z,24.45
2017-01-12T05:19:20.243Z,24.39
2017-01-12T05:20:20.243Z,24.37
2017-01-12T05:21:19.805Z,24.39
2017-01-12T05:22:19.872Z,24.31
2017-01-12T05:23:20.613Z,24.32
2017-01-12T05:24:19.880Z,24.39
2017-01-12T05:25:20.232Z,24.37
2017-01-12T05:26:20.588Z,24.39
2017-01-12T05:27:20.638Z,24.39
2017-01-12T05:28:20.697Z,24.35
2017-01-12T05:29:20.365Z,24.31
2017-01-12T05:30:20.660Z,24.3
2017-01-12T05:31:20.324Z,24.34
2017-01-12T05:32:19.931Z,24.34
2017-01-12T05:33:19.889Z,24.49
2017-01-12T05:34:20.739Z,24.39
2017-01-12T05:35:19.955Z,24.35
2017-01-12T05:36:20.307Z,24.45
2017-01-12T05:37:20.312Z,24.45
2017-01-12T05:38:20.374Z,24.35
2017-01-12T05:39:20.379Z,24.37
2017-01-12T05:40:20.385Z,24.31
2017-01-12T05:41:20.392Z,24.25
2017-01-12T05:42:19.955Z,24.35
2017-01-12T05:43:20.010Z,24.39
2017-01-12T05:44:19.977Z,24.35
2017-01-12T05:45:20.023Z,24.34
2017-01-12T05:46:20.383Z,24.37
2017-01-12T05:47:20.386Z,24.28
2017-01-12T05:48:20.047Z,24.34
2017-01-12T05:49:20.395Z,24.27
2017-01-12T05:50:20.456Z,24.3
2017-01-12T05:51:20.460Z,24.31
2017-01-12T05:52:20.472Z,24.34
2017-01-12T05:53:20.089Z,24.31
2017-01-12T05:54:20.483Z,24.42
2017-01-12T05:55:20.437Z,24.4
2017-01-12T05:56:20.497Z,24.35
2017-01-12T05:57:20.900Z,24.43
2017-01-12T05:58:20.510Z,24.37
2017-01-12T05:59:20.568Z,24.27
2017-01-12T06:00:20.526Z,24.24
2017-01-12T06:01:20.433Z,24.22
2017-01-12T06:02:20.535Z,24.18
2017-01-12T06:03:20.593Z,24.28
2017-01-12T06:04:20.158Z,24.31
2017-01-12T06:05:21.006Z,24.32
2017-01-12T06:06:20.568Z,24.31
2017-01-12T06:07:20.134Z,24.24
2017-01-12T06:08:20.579Z,24.25
2017-01-12T06:09:20.247Z,24.24
2017-01-12T06:10:20.943Z,24.28
2017-01-12T06:11:20.652Z,24.32
2017-01-12T06:12:20.163Z,24.3
2017-01-12T06:13:20.565Z,24.32
2017-01-12T06:14:20.228Z,24.43
2017-01-12T06:15:20.235Z,24.31
2017-01-12T06:16:21.084Z,24.35
2017-01-12T06:17:20.644Z,24.24
2017-01-12T06:18:21.046Z,24.32
2017-01-12T06:19:21.056Z,24.39
2017-01-12T06:20:21.060Z,24.35
2017-01-12T06:21:20.672Z,24.3
2017-01-12T06:22:20.681Z,24.31
2017-01-12T06:23:21.082Z,24.31
2017-01-12T06:24:20.646Z,24.34
2017-01-12T06:25:21.146Z,24.34
2017-01-12T06:26:20.657Z,24.37
2017-01-12T06:27:20.665Z,24.45
2017-01-12T06:28:50.031Z,24.43
2017-01-12T06:29:20.383Z,24.49
2017-01-12T06:30:20.732Z,24.35
2017-01-12T06:31:21.239Z,24.39
2017-01-12T06:32:20.352Z,24.35
2017-01-12T06:33:20.836Z,24.35
2017-01-12T06:34:21.158Z,24.37
2017-01-12T06:35:20.323Z,24.32
2017-01-12T06:36:21.221Z,24.27
2017-01-12T06:37:21.130Z,24.32
2017-01-12T06:38:20.398Z,24.27
2017-01-12T06:39:21.241Z,24.31
2017-01-12T06:40:20.756Z,24.39
2017-01-12T06:41:20.811Z,24.35
2017-01-12T06:42:21.162Z,24.4
2017-01-12T06:43:20.823Z,24.43
2017-01-12T06:44:20.830Z,24.32
2017-01-12T06:45:20.788Z,24.31
2017-01-12T06:46:20.899Z,24.4
2017-01-12T06:47:20.405Z,24.32
2017-01-12T06:48:20.860Z,24.37
2017-01-12T06:49:20.865Z,24.28
2017-01-12T06:50:20.872Z,24.3
2017-01-12T06:51:21.276Z,24.32
2017-01-12T06:52:20.838Z,24.3
2017-01-12T06:53:20.547Z,24.35
2017-01-12T06:54:21.248Z,24.45
2017-01-12T06:55:20.966Z,24.37
2017-01-12T06:56:20.568Z,24.42
2017-01-12T06:57:20.917Z,24.37
2017-01-12T06:58:20.880Z,24.43
2017-01-12T06:59:20.986Z,24.47
2017-01-12T07:00:20.545Z,24.35
2017-01-12T07:01:20.947Z,24.42
2017-01-12T07:02:20.904Z,24.24
2017-01-12T07:03:21.658Z,24.27
2017-01-12T07:04:21.364Z,24.37
2017-01-12T07:05:20.929Z,24.37
2017-01-12T07:06:20.980Z,24.42
2017-01-12T07:07:20.589Z,24.42
2017-01-12T07:08:21.342Z,24.35
2017-01-12T07:09:21.350Z,24.35
2017-01-12T07:10:20.958Z,24.37
2017-01-12T07:11:21.020Z,24.39
2017-01-12T07:12:21.420Z,24.31
2017-01-12T07:13:20.684Z,24.31
2017-01-12T07:14:21.432Z,24.39
2017-01-12T07:15:20.597Z,24.3
2017-01-12T07:16:21.101Z,24.2
2017-01-12T07:17:21.403Z,24.21
2017-01-12T07:18:20.723Z,24.27
2017-01-12T07:19:21.468Z,24.27
2017-01-12T07:20:20.699Z,24.3
2017-01-12T07:21:21.089Z,24.31
2017-01-12T07:22:21.486Z,24.3
2017-01-12T07:23:20.655Z,24.32
2017-01-12T07:24:21.107Z,24.34
2017-01-12T07:25:21.510Z,24.37
2017-01-12T07:26:20.674Z,24.39
2017-01-12T07:27:21.076Z,24.35
2017-01-12T07:28:35.618Z,24.28
2017-01-12T07:29:21.193Z,24.21
2017-01-12T07:30:21.146Z,24.3
2017-01-12T07:31:21.554Z,24.3
2017-01-12T07:32:21.610Z,24.34
2017-01-12T07:33:21.171Z,24.42
2017-01-12T07:34:21.607Z,24.57
2017-01-12T07:35:21.632Z,24.64
2017-01-12T07:36:21.535Z,24.83
2017-01-12T07:37:21.594Z,24.87
2017-01-12T07:38:20.858Z,25
2017-01-12T07:39:21.657Z,25.06
2017-01-12T07:40:20.772Z,25.18
2017-01-12T07:41:21.275Z,25.21
2017-01-12T07:42:21.981Z,25.33
2017-01-12T07:43:21.290Z,25.45
2017-01-12T07:44:21.194Z,25.5
2017-01-12T07:45:21.252Z,25.7
2017-01-12T07:46:21.267Z,25.72
2017-01-12T07:47:21.669Z,25.85
2017-01-12T07:48:20.881Z,25.79
2017-01-12T07:49:21.283Z,25.92
2017-01-12T07:50:20.894Z,26.02
2017-01-12T07:51:21.744Z,26.02
2017-01-12T07:52:20.912Z,26.07
2017-01-12T07:53:21.313Z,26.18
2017-01-12T07:54:21.300Z,26.17
2017-01-12T07:55:20.984Z,26.37
2017-01-12T07:56:21.387Z,26.37
2017-01-12T07:57:21.393Z,26.4
2017-01-12T07:58:20.956Z,26.47
2017-01-12T07:59:21.362Z,26.51
2017-01-12T08:00:21.367Z,26.52
2017-01-12T08:01:21.375Z,26.62
2017-01-12T08:02:21.429Z,26.63
2017-01-12T08:03:21.842Z,26.7
2017-01-12T08:04:22.041Z,26.67
2017-01-12T08:05:20.964Z,26.7
2017-01-12T08:06:21.410Z,26.67
2017-01-12T08:07:21.371Z,26.7
2017-01-12T08:08:21.425Z,26.73
2017-01-12T08:09:21.434Z,26.81
2017-01-12T08:10:21.445Z,26.76
2017-01-12T08:11:21.400Z,26.75
2017-01-12T08:12:21.869Z,26.81
2017-01-12T08:13:21.811Z,26.84
2017-01-12T08:14:21.524Z,26.8
2017-01-12T08:15:21.482Z,26.81
2017-01-12T08:16:21.937Z,26.82
2017-01-12T08:17:21.101Z,26.82
2017-01-12T08:18:22.252Z,26.85
2017-01-12T08:19:21.960Z,26.73
2017-01-12T08:20:22.122Z,26.85
2017-01-12T08:21:22.125Z,26.84
2017-01-12T08:22:21.582Z,26.92
2017-01-12T08:23:21.646Z,26.88
2017-01-12T08:24:22.295Z,27.02
2017-01-12T08:25:22.057Z,26.88
2017-01-12T08:26:23.314Z,26.82
2017-01-12T08:27:22.023Z,26.82
2017-01-12T08:28:21.683Z,26.82
2017-01-12T08:29:21.638Z,26.88
2017-01-12T08:30:23.094Z,26.92
2017-01-12T08:31:22.100Z,26.89
2017-01-12T08:32:22.469Z,26.94
2017-01-12T08:33:21.440Z,26.81
2017-01-12T08:34:21.733Z,26.84
2017-01-12T08:35:24.490Z,26.88
2017-01-12T08:36:21.298Z,26.92
2017-01-12T08:37:22.402Z,26.88
2017-01-12T08:38:21.812Z,26.91
2017-01-12T08:39:21.771Z,26.84
2017-01-12T08:40:22.032Z,27.03
2017-01-12T08:41:22.137Z,26.97
2017-01-12T08:42:22.089Z,26.92
2017-01-12T08:43:23.103Z,27.02
2017-01-12T08:44:22.356Z,27
2017-01-12T08:45:22.769Z,27.06
2017-01-12T08:46:23.773Z,27.06
2017-01-12T08:47:21.835Z,27.06
2017-01-12T08:48:21.395Z,27.03
2017-01-12T08:49:21.899Z,27.02
2017-01-12T08:50:21.520Z,27.06
2017-01-12T08:51:22.213Z,27.13
2017-01-12T08:52:21.878Z,27.12
2017-01-12T08:53:21.440Z,27.18
2017-01-12T08:54:22.191Z,27.27
2017-01-12T08:55:22.353Z,27.39
2017-01-12T08:56:22.809Z,27.39
2017-01-12T08:57:21.374Z,27.43
2017-01-12T08:58:21.877Z,27.32
2017-01-12T08:59:22.367Z,27.36
2017-01-12T09:00:23.451Z,27.43
2017-01-12T09:01:22.253Z,27.41
2017-01-12T09:02:22.165Z,27.43
2017-01-12T09:03:22.369Z,27.46
2017-01-12T09:04:22.747Z,27.39
2017-01-12T09:05:22.438Z,27.31
2017-01-12T09:06:22.146Z,27.24
2017-01-12T09:07:21.961Z,27.4
2017-01-12T09:08:23.008Z,27.49
2017-01-12T09:09:36.853Z,27.54
2017-01-12T09:10:21.637Z,27.54
2017-01-12T09:11:22.439Z,27.63
2017-01-12T09:12:24.446Z,27.69
2017-01-12T09:13:22.120Z,27.65
2017-01-12T09:14:24.517Z,27.69
2017-01-12T09:15:22.280Z,27.72
2017-01-12T09:16:22.596Z,27.69
2017-01-12T09:17:23.208Z,27.75
2017-01-12T09:18:22.851Z,27.69
2017-01-12T09:19:22.265Z,27.82
2017-01-12T09:20:23.071Z,27.77
2017-01-12T09:21:22.578Z,27.72
2017-01-12T09:22:22.144Z,27.67
2017-01-12T09:23:22.106Z,27.81
2017-01-12T09:24:21.769Z,27.85
2017-01-12T09:25:23.167Z,27.81
2017-01-12T09:26:22.135Z,27.84
2017-01-12T09:27:22.145Z,27.78
2017-01-12T09:28:26.053Z,27.77
2017-01-12T09:29:22.959Z,27.75
2017-01-12T09:30:22.183Z,27.84
2017-01-12T09:31:23.531Z,27.75
2017-01-12T09:32:22.196Z,27.82
2017-01-12T09:33:23.709Z,27.85
2017-01-12T09:34:22.216Z,27.78
2017-01-12T09:35:24.381Z,27.81
2017-01-12T09:36:23.491Z,27.66
2017-01-12T09:37:22.687Z,27.67
2017-01-12T09:38:22.756Z,27.75
2017-01-12T09:40:23.470Z,27.75
2017-01-12T09:41:22.787Z,27.72
2017-01-12T09:42:22.289Z,27.69
2017-01-12T09:43:22.698Z,27.63
2017-01-12T09:44:23.115Z,27.72
2017-01-12T09:45:22.868Z,27.77
2017-01-12T09:46:22.180Z,27.81
2017-01-12T09:47:23.736Z,27.7
2017-01-12T09:48:22.770Z,27.62
2017-01-12T09:49:22.952Z,27.69
2017-01-12T09:50:22.316Z,27.63
2017-01-12T09:51:22.625Z,27.74
2017-01-12T09:52:22.835Z,27.63
2017-01-12T09:53:22.793Z,27.74
2017-01-12T09:55:23.464Z,27.7
2017-01-12T09:56:37.908Z,27.57
2017-01-12T09:57:22.437Z,27.65
2017-01-12T09:58:22.447Z,27.79
2017-01-12T09:59:22.604Z,27.66
2017-01-12T10:00:37.386Z,27.66
2017-01-12T10:01:22.469Z,27.7
2017-01-12T10:02:22.030Z,27.67
2017-01-12T10:03:22.534Z,27.7
2017-01-12T10:04:23.341Z,27.75
2017-01-12T10:05:23.106Z,27.55
2017-01-12T10:06:22.960Z,27.49
2017-01-12T10:07:22.124Z,27.4
2017-01-12T10:08:22.629Z,27.41
2017-01-12T10:09:23.233Z,27.39
2017-01-12T10:10:23.645Z,27.47
2017-01-12T10:11:23.105Z,27.49
2017-01-12T10:12:22.614Z,27.44
2017-01-12T10:13:23.174Z,27.55
2017-01-12T10:14:23.028Z,27.46
2017-01-12T10:15:23.133Z,27.5
2017-01-12T10:16:22.661Z,27.39
2017-01-12T10:17:22.557Z,27.34
2017-01-12T10:18:22.719Z,27.25
2017-01-12T10:19:22.675Z,27.1
2017-01-12T10:20:22.342Z,26.91
2017-01-12T10:21:22.246Z,26.92
2017-01-12T10:22:23.150Z,27.04
2017-01-12T10:23:23.105Z,27.04
2017-01-12T10:24:24.481Z,27
2017-01-12T10:25:22.675Z,26.88
2017-01-12T10:26:23.586Z,26.88
2017-01-12T10:28:22.700Z,27.03
2017-01-12T10:29:24.915Z,27.14
2017-01-12T10:30:22.923Z,27.12
2017-01-12T10:31:23.121Z,27.13
2017-01-12T10:32:22.780Z,27.1
2017-01-12T10:33:22.751Z,27.12
2017-01-12T10:34:25.197Z,27.09
2017-01-12T10:35:23.507Z,27.17
2017-01-12T10:36:23.918Z,27.09
2017-01-12T10:37:22.427Z,27.07
2017-01-12T10:38:23.171Z,27.1
2017-01-12T10:39:22.841Z,27.19
2017-01-12T10:40:24.146Z,27.12
2017-01-12T10:41:24.862Z,27.13
2017-01-12T10:42:22.922Z,27.24
2017-01-12T10:43:22.726Z,27.22
2017-01-12T10:44:22.833Z,27.17
2017-01-12T10:45:24.489Z,27.24
2017-01-12T10:46:23.155Z,27.09
2017-01-12T10:47:22.852Z,27.09
2017-01-12T10:48:23.718Z,27.04
2017-01-12T10:49:22.875Z,27.13
2017-01-12T10:50:22.837Z,27.18
2017-01-12T10:51:22.912Z,27.06
2017-01-12T10:52:23.842Z,27.12
2017-01-12T10:53:22.957Z,27.13
2017-01-12T10:54:22.913Z,27.06
2017-01-12T10:55:25.420Z,27.1
2017-01-12T10:56:22.584Z,27.14
2017-01-12T10:57:23.335Z,27.03
2017-01-12T10:58:22.948Z,27.13
2017-01-12T10:59:22.956Z,27.1
2017-01-12T11:00:23.906Z,27.13
2017-01-12T11:01:24.873Z,27.04
2017-01-12T11:02:37.954Z,27.13
2017-01-12T11:03:23.680Z,27.04
2017-01-12T11:04:24.193Z,27.12
2017-01-12T11:05:24.299Z,27.13
2017-01-12T11:06:23.860Z,27.09
2017-01-12T11:07:23.069Z,27.09
2017-01-12T11:08:37.902Z,27.03
2017-01-12T11:09:22.638Z,27.07
2017-01-12T11:10:22.670Z,27.12
2017-01-12T11:11:23.398Z,27.17
2017-01-12T11:12:24.715Z,27.13
2017-01-12T11:13:23.063Z,27.09
2017-01-12T11:14:23.521Z,27.07
2017-01-12T11:15:23.081Z,27.09
2017-01-12T11:16:37.521Z,27.09
2017-01-12T11:17:23.498Z,27.07
2017-01-12T11:18:23.550Z,27.1
2017-01-12T11:19:23.969Z,27.18
2017-01-12T11:20:23.125Z,27.12
2017-01-12T11:21:25.232Z,27.24
2017-01-12T11:22:23.592Z,27.12
2017-01-12T11:23:24.044Z,27.21
2017-01-12T11:24:23.560Z,27.07
2017-01-12T11:25:23.163Z,27.09
2017-01-12T11:26:25.227Z,27.13
2017-01-12T11:27:23.631Z,27.12
2017-01-12T11:28:27.691Z,27.14
2017-01-12T11:29:24.497Z,27.13
2017-01-12T11:30:22.955Z,27.1
2017-01-12T11:31:24.407Z,27.17
2017-01-12T11:32:24.167Z,27.14
2017-01-12T11:33:23.375Z,27.07
2017-01-12T11:34:24.935Z,27.07
2017-01-12T11:35:23.194Z,27.17
2017-01-12T11:36:23.751Z,27.24
2017-01-12T11:37:23.271Z,27.24
2017-01-12T11:38:24.116Z,27.13
2017-01-12T11:39:25.827Z,27.14
2017-01-12T11:40:25.083Z,26.92
2017-01-12T11:41:23.297Z,26.87
2017-01-12T11:42:23.794Z,26.8
2017-01-12T11:43:25.407Z,26.67
2017-01-12T11:44:24.611Z,26.65
2017-01-12T11:45:23.825Z,26.7
2017-01-12T11:46:24.129Z,26.69
2017-01-12T11:47:23.288Z,26.66
2017-01-12T11:48:24.095Z,26.67
2017-01-12T11:49:23.800Z,26.7
2017-01-12T11:50:25.510Z,26.77
2017-01-12T11:51:23.423Z,26.85
2017-01-12T11:52:24.027Z,26.87
2017-01-12T11:53:23.784Z,27.04
2017-01-12T11:54:24.342Z,27.07
2017-01-12T11:55:24.148Z,27.12
2017-01-12T11:56:22.968Z,27.09
2017-01-12T11:57:23.919Z,27.1
2017-01-12T11:58:24.282Z,27.1
2017-01-12T11:59:23.875Z,27.13
2017-01-12T12:00:23.492Z,27.13
2017-01-12T12:01:25.397Z,27.12
2017-01-12T12:02:24.202Z,27.12
2017-01-12T12:03:26.062Z,27.04
2017-01-12T12:04:23.025Z,27.13
2017-01-12T12:05:25.040Z,27.06
2017-01-12T12:06:23.142Z,27.14
2017-01-12T12:07:23.441Z,27.14
2017-01-12T12:08:23.550Z,27.1
2017-01-12T12:09:25.161Z,27.12
2017-01-12T12:10:24.014Z,27.07
2017-01-12T12:11:24.823Z,27.12
2017-01-12T12:12:24.691Z,27.06
2017-01-12T12:13:23.643Z,27.17
2017-01-12T12:14:27.161Z,27.06
2017-01-12T12:15:23.217Z,27.07
2017-01-12T12:16:23.618Z,27.1
2017-01-12T12:17:24.032Z,27.13
2017-01-12T12:18:40.965Z,27.06
2017-01-12T12:19:23.920Z,27.09
2017-01-12T12:20:24.347Z,27.09
2017-01-12T12:21:24.153Z,27.06
2017-01-12T12:22:24.389Z,27.12
2017-01-12T12:23:25.333Z,27.1
2017-01-12T12:24:23.235Z,27.22
2017-01-12T12:25:38.126Z,27.25
2017-01-12T12:26:23.517Z,27.12
2017-01-12T12:27:23.667Z,27.09
2017-01-12T12:28:38.196Z,27.14
2017-01-12T12:29:24.672Z,27.07
2017-01-12T12:30:23.290Z,27.06
2017-01-12T12:31:24.034Z,27.07
2017-01-12T12:32:23.251Z,27.17
2017-01-12T12:33:23.311Z,27.06
2017-01-12T12:34:23.815Z,26.85
2017-01-12T12:35:23.277Z,26.84
2017-01-12T12:36:23.389Z,26.85
2017-01-12T12:37:23.392Z,26.81
2017-01-12T12:38:23.353Z,26.88
2017-01-12T12:39:24.152Z,27.04
2017-01-12T12:40:23.914Z,27.06
2017-01-12T12:41:24.370Z,27
2017-01-12T12:42:24.326Z,26.99
2017-01-12T12:43:23.391Z,26.99
2017-01-12T12:44:23.792Z,27.07
2017-01-12T12:45:24.150Z,27.1
2017-01-12T12:46:24.164Z,27.12
2017-01-12T12:47:23.823Z,27.12
2017-01-12T12:48:23.830Z,26.91
2017-01-12T12:49:23.903Z,26.95
2017-01-12T12:50:23.845Z,26.89
2017-01-12T12:51:23.903Z,27.02
2017-01-12T12:52:23.475Z,27.12
2017-01-12T12:53:24.164Z,27.04
2017-01-12T12:54:23.826Z,27.02
2017-01-12T12:55:23.952Z,27.12
2017-01-12T12:56:23.997Z,27.13
2017-01-12T12:57:23.509Z,26.97
2017-01-12T12:58:23.860Z,26.99